sensor_id;sensor_type;location;lat;lon;timestamp;P1;durP1;ratioP1;P2;durP2;ratioP2
61840;SDS011;47773;53.174;6.614;2023-10-31T00:01:35;8.68;;;2.08;;
61840;SDS011;47773;53.174;6.614;2023-10-31T00:04:00;10.85;;;2.03;;
61840;SDS011;47773;53.174;6.614;2023-10-31T00:06:26;7.47;;;2.22;;
61840;SDS011;47773;53.174;6.614;2023-10-31T00:08:52;6.75;;;1.90;;
61840;SDS011;47773;53.174;6.614;2023-10-31T00:11:17;8.40;;;1.80;;
61840;SDS011;47773;53.174;6.614;2023-10-31T00:13:43;11.13;;;2.22;;
61840;SDS011;47773;53.174;6.614;2023-10-31T00:16:09;13.63;;;1.90;;
61840;SDS011;47773;53.174;6.614;2023-10-31T00:18:34;9.65;;;1.73;;
61840;SDS011;47773;53.174;6.614;2023-10-31T00:21:00;6.78;;;1.50;;
61840;SDS011;47773;53.174;6.614;2023-10-31T00:23:25;6.32;;;1.17;;
61840;SDS011;47773;53.174;6.614;2023-10-31T00:25:51;9.70;;;1.90;;
61840;SDS011;47773;53.174;6.614;2023-10-31T00:28:17;13.05;;;2.90;;
61840;SDS011;47773;53.174;6.614;2023-10-31T00:30:42;10.02;;;3.35;;
61840;SDS011;47773;53.174;6.614;2023-10-31T00:33:08;12.25;;;2.58;;
61840;SDS011;47773;53.174;6.614;2023-10-31T00:35:34;13.77;;;2.30;;
61840;SDS011;47773;53.174;6.614;2023-10-31T00:37:59;5.25;;;2.17;;
61840;SDS011;47773;53.174;6.614;2023-10-31T00:40:25;11.13;;;2.17;;
61840;SDS011;47773;53.174;6.614;2023-10-31T00:42:51;5.82;;;1.40;;
61840;SDS011;47773;53.174;6.614;2023-10-31T00:45:17;12.27;;;1.48;;
61840;SDS011;47773;53.174;6.614;2023-10-31T00:47:43;4.50;;;1.30;;
61840;SDS011;47773;53.174;6.614;2023-10-31T00:50:08;5.13;;;1.50;;
61840;SDS011;47773;53.174;6.614;2023-10-31T00:52:34;5.35;;;1.20;;
61840;SDS011;47773;53.174;6.614;2023-10-31T00:55:00;7.32;;;1.30;;
61840;SDS011;47773;53.174;6.614;2023-10-31T00:57:26;3.72;;;1.00;;
61840;SDS011;47773;53.174;6.614;2023-10-31T00:59:51;3.33;;;1.05;;
61840;SDS011;47773;53.174;6.614;2023-10-31T01:02:17;2.95;;;0.95;;
61840;SDS011;47773;53.174;6.614;2023-10-31T01:04:42;5.05;;;0.80;;
61840;SDS011;47773;53.174;6.614;2023-10-31T01:07:08;3.70;;;0.68;;
61840;SDS011;47773;53.174;6.614;2023-10-31T01:09:37;6.25;;;0.88;;
61840;SDS011;47773;53.174;6.614;2023-10-31T01:12:03;4.53;;;0.73;;
61840;SDS011;47773;53.174;6.614;2023-10-31T01:14:29;5.57;;;1.00;;
61840;SDS011;47773;53.174;6.614;2023-10-31T01:16:55;7.25;;;0.80;;
61840;SDS011;47773;53.174;6.614;2023-10-31T01:19:21;8.20;;;1.50;;
61840;SDS011;47773;53.174;6.614;2023-10-31T01:21:46;8.02;;;1.05;;
61840;SDS011;47773;53.174;6.614;2023-10-31T01:24:12;5.55;;;0.80;;
61840;SDS011;47773;53.174;6.614;2023-10-31T01:26:37;4.63;;;0.75;;
61840;SDS011;47773;53.174;6.614;2023-10-31T01:29:03;5.93;;;0.80;;
61840;SDS011;47773;53.174;6.614;2023-10-31T01:31:29;5.03;;;0.85;;
61840;SDS011;47773;53.174;6.614;2023-10-31T01:33:54;9.20;;;1.27;;
61840;SDS011;47773;53.174;6.614;2023-10-31T01:36:23;6.25;;;0.80;;
61840;SDS011;47773;53.174;6.614;2023-10-31T01:38:51;6.55;;;0.88;;
61840;SDS011;47773;53.174;6.614;2023-10-31T01:41:17;11.13;;;1.08;;
61840;SDS011;47773;53.174;6.614;2023-10-31T01:43:42;4.88;;;0.75;;
61840;SDS011;47773;53.174;6.614;2023-10-31T01:46:08;5.65;;;0.90;;
61840;SDS011;47773;53.174;6.614;2023-10-31T01:48:34;6.32;;;0.90;;
61840;SDS011;47773;53.174;6.614;2023-10-31T01:51:00;2.80;;;0.70;;
61840;SDS011;47773;53.174;6.614;2023-10-31T01:53:28;6.88;;;0.90;;
61840;SDS011;47773;53.174;6.614;2023-10-31T01:55:58;5.20;;;0.75;;
61840;SDS011;47773;53.174;6.614;2023-10-31T01:58:30;4.80;;;0.70;;
61840;SDS011;47773;53.174;6.614;2023-10-31T02:00:59;7.40;;;0.80;;
61840;SDS011;47773;53.174;6.614;2023-10-31T02:03:25;4.55;;;1.08;;
61840;SDS011;47773;53.174;6.614;2023-10-31T02:05:52;5.35;;;1.15;;
61840;SDS011;47773;53.174;6.614;2023-10-31T02:08:18;4.88;;;0.80;;
61840;SDS011;47773;53.174;6.614;2023-10-31T02:10:44;10.77;;;1.05;;
61840;SDS011;47773;53.174;6.614;2023-10-31T02:13:19;5.50;;;1.08;;
61840;SDS011;47773;53.174;6.614;2023-10-31T02:15:45;11.13;;;1.02;;
61840;SDS011;47773;53.174;6.614;2023-10-31T02:18:11;6.45;;;1.00;;
61840;SDS011;47773;53.174;6.614;2023-10-31T02:20:37;5.65;;;0.93;;
61840;SDS011;47773;53.174;6.614;2023-10-31T02:23:03;6.03;;;0.80;;
61840;SDS011;47773;53.174;6.614;2023-10-31T02:25:29;5.68;;;0.73;;
61840;SDS011;47773;53.174;6.614;2023-10-31T02:27:55;8.07;;;0.82;;
61840;SDS011;47773;53.174;6.614;2023-10-31T02:30:20;5.03;;;0.80;;
61840;SDS011;47773;53.174;6.614;2023-10-31T02:32:46;9.35;;;1.15;;
61840;SDS011;47773;53.174;6.614;2023-10-31T02:35:14;10.60;;;2.45;;
61840;SDS011;47773;53.174;6.614;2023-10-31T02:37:41;5.40;;;0.98;;
61840;SDS011;47773;53.174;6.614;2023-10-31T02:40:06;8.00;;;1.48;;
61840;SDS011;47773;53.174;6.614;2023-10-31T02:42:33;3.42;;;0.60;;
61840;SDS011;47773;53.174;6.614;2023-10-31T02:44:58;6.57;;;0.88;;
61840;SDS011;47773;53.174;6.614;2023-10-31T02:47:24;4.85;;;0.95;;
61840;SDS011;47773;53.174;6.614;2023-10-31T02:49:49;9.93;;;0.90;;
61840;SDS011;47773;53.174;6.614;2023-10-31T02:52:15;2.88;;;0.73;;
61840;SDS011;47773;53.174;6.614;2023-10-31T02:54:41;7.53;;;1.13;;
61840;SDS011;47773;53.174;6.614;2023-10-31T02:57:06;6.72;;;1.33;;
61840;SDS011;47773;53.174;6.614;2023-10-31T02:59:33;8.27;;;0.98;;
61840;SDS011;47773;53.174;6.614;2023-10-31T03:01:58;11.75;;;2.00;;
61840;SDS011;47773;53.174;6.614;2023-10-31T03:04:24;5.18;;;1.20;;
61840;SDS011;47773;53.174;6.614;2023-10-31T03:06:50;6.60;;;1.30;;
61840;SDS011;47773;53.174;6.614;2023-10-31T03:09:16;7.88;;;2.05;;
61840;SDS011;47773;53.174;6.614;2023-10-31T03:11:41;6.60;;;2.22;;
61840;SDS011;47773;53.174;6.614;2023-10-31T03:14:07;8.00;;;2.40;;
61840;SDS011;47773;53.174;6.614;2023-10-31T03:16:33;5.90;;;2.20;;
61840;SDS011;47773;53.174;6.614;2023-10-31T03:18:59;9.13;;;2.10;;
61840;SDS011;47773;53.174;6.614;2023-10-31T03:21:25;9.27;;;2.35;;
61840;SDS011;47773;53.174;6.614;2023-10-31T03:23:51;7.53;;;2.38;;
61840;SDS011;47773;53.174;6.614;2023-10-31T03:26:21;16.48;;;2.72;;
61840;SDS011;47773;53.174;6.614;2023-10-31T03:28:47;10.80;;;2.00;;
61840;SDS011;47773;53.174;6.614;2023-10-31T03:31:13;8.70;;;2.47;;
61840;SDS011;47773;53.174;6.614;2023-10-31T03:33:39;9.93;;;2.67;;
61840;SDS011;47773;53.174;6.614;2023-10-31T03:36:05;10.70;;;2.38;;
61840;SDS011;47773;53.174;6.614;2023-10-31T03:38:31;7.75;;;2.17;;
61840;SDS011;47773;53.174;6.614;2023-10-31T03:40:57;6.28;;;2.20;;
61840;SDS011;47773;53.174;6.614;2023-10-31T03:43:23;8.27;;;2.38;;
61840;SDS011;47773;53.174;6.614;2023-10-31T03:45:49;6.18;;;2.92;;
61840;SDS011;47773;53.174;6.614;2023-10-31T03:48:17;11.50;;;3.58;;
61840;SDS011;47773;53.174;6.614;2023-10-31T03:50:43;9.30;;;2.80;;
61840;SDS011;47773;53.174;6.614;2023-10-31T03:53:09;8.18;;;2.97;;
61840;SDS011;47773;53.174;6.614;2023-10-31T03:55:34;10.75;;;2.80;;
61840;SDS011;47773;53.174;6.614;2023-10-31T03:58:00;9.48;;;2.90;;
61840;SDS011;47773;53.174;6.614;2023-10-31T04:00:26;7.10;;;3.40;;
61840;SDS011;47773;53.174;6.614;2023-10-31T04:02:51;6.53;;;2.80;;
61840;SDS011;47773;53.174;6.614;2023-10-31T04:05:17;18.42;;;3.03;;
61840;SDS011;47773;53.174;6.614;2023-10-31T04:07:43;6.78;;;2.97;;
61840;SDS011;47773;53.174;6.614;2023-10-31T04:10:12;9.45;;;3.08;;
61840;SDS011;47773;53.174;6.614;2023-10-31T04:12:38;9.63;;;3.20;;
61840;SDS011;47773;53.174;6.614;2023-10-31T04:15:04;5.40;;;2.63;;
61840;SDS011;47773;53.174;6.614;2023-10-31T04:17:30;11.65;;;3.00;;
61840;SDS011;47773;53.174;6.614;2023-10-31T04:19:56;8.32;;;2.55;;
61840;SDS011;47773;53.174;6.614;2023-10-31T04:22:21;14.68;;;3.97;;
61840;SDS011;47773;53.174;6.614;2023-10-31T04:24:47;6.40;;;2.40;;
61840;SDS011;47773;53.174;6.614;2023-10-31T04:27:13;7.57;;;2.60;;
61840;SDS011;47773;53.174;6.614;2023-10-31T04:29:38;7.32;;;2.60;;
61840;SDS011;47773;53.174;6.614;2023-10-31T04:32:04;9.20;;;2.53;;
61840;SDS011;47773;53.174;6.614;2023-10-31T04:34:30;6.45;;;2.42;;
61840;SDS011;47773;53.174;6.614;2023-10-31T04:36:55;8.02;;;2.33;;
61840;SDS011;47773;53.174;6.614;2023-10-31T04:39:21;4.68;;;2.10;;
61840;SDS011;47773;53.174;6.614;2023-10-31T04:41:47;10.05;;;2.40;;
61840;SDS011;47773;53.174;6.614;2023-10-31T04:44:13;9.68;;;1.98;;
61840;SDS011;47773;53.174;6.614;2023-10-31T04:46:38;5.90;;;2.00;;
61840;SDS011;47773;53.174;6.614;2023-10-31T04:49:04;7.03;;;1.85;;
61840;SDS011;47773;53.174;6.614;2023-10-31T04:51:36;6.75;;;2.08;;
61840;SDS011;47773;53.174;6.614;2023-10-31T04:54:03;8.52;;;1.65;;
61840;SDS011;47773;53.174;6.614;2023-10-31T04:56:29;9.73;;;2.58;;
61840;SDS011;47773;53.174;6.614;2023-10-31T04:58:55;4.80;;;1.90;;
61840;SDS011;47773;53.174;6.614;2023-10-31T05:01:21;3.40;;;1.35;;
61840;SDS011;47773;53.174;6.614;2023-10-31T05:03:47;4.95;;;1.70;;
61840;SDS011;47773;53.174;6.614;2023-10-31T05:06:12;5.13;;;1.70;;
61840;SDS011;47773;53.174;6.614;2023-10-31T05:08:38;6.38;;;1.58;;
61840;SDS011;47773;53.174;6.614;2023-10-31T05:11:04;3.72;;;1.20;;
61840;SDS011;47773;53.174;6.614;2023-10-31T05:13:29;6.60;;;1.10;;
61840;SDS011;47773;53.174;6.614;2023-10-31T05:15:55;4.13;;;1.00;;
61840;SDS011;47773;53.174;6.614;2023-10-31T05:18:20;3.60;;;0.80;;
61840;SDS011;47773;53.174;6.614;2023-10-31T05:20:46;2.85;;;0.70;;
61840;SDS011;47773;53.174;6.614;2023-10-31T05:23:12;3.45;;;0.88;;
61840;SDS011;47773;53.174;6.614;2023-10-31T05:25:38;4.93;;;0.63;;
61840;SDS011;47773;53.174;6.614;2023-10-31T05:28:04;5.47;;;0.90;;
61840;SDS011;47773;53.174;6.614;2023-10-31T05:30:29;5.40;;;0.65;;
61840;SDS011;47773;53.174;6.614;2023-10-31T05:32:55;6.63;;;0.68;;
61840;SDS011;47773;53.174;6.614;2023-10-31T05:35:21;3.13;;;0.60;;
61840;SDS011;47773;53.174;6.614;2023-10-31T05:37:47;3.05;;;0.73;;
61840;SDS011;47773;53.174;6.614;2023-10-31T05:40:14;2.33;;;0.55;;
61840;SDS011;47773;53.174;6.614;2023-10-31T05:42:41;4.28;;;1.25;;
61840;SDS011;47773;53.174;6.614;2023-10-31T05:45:07;2.03;;;0.70;;
61840;SDS011;47773;53.174;6.614;2023-10-31T05:47:33;3.83;;;0.60;;
61840;SDS011;47773;53.174;6.614;2023-10-31T05:49:59;3.83;;;0.60;;
61840;SDS011;47773;53.174;6.614;2023-10-31T05:52:28;1.77;;;0.60;;
61840;SDS011;47773;53.174;6.614;2023-10-31T05:54:54;3.53;;;0.55;;
61840;SDS011;47773;53.174;6.614;2023-10-31T05:57:20;3.17;;;0.63;;
61840;SDS011;47773;53.174;6.614;2023-10-31T05:59:46;5.55;;;0.68;;
61840;SDS011;47773;53.174;6.614;2023-10-31T06:02:12;1.45;;;0.50;;
61840;SDS011;47773;53.174;6.614;2023-10-31T06:04:38;4.05;;;0.60;;
61840;SDS011;47773;53.174;6.614;2023-10-31T06:07:04;3.58;;;0.70;;
61840;SDS011;47773;53.174;6.614;2023-10-31T06:09:29;5.38;;;0.60;;
61840;SDS011;47773;53.174;6.614;2023-10-31T06:11:55;2.70;;;0.60;;
61840;SDS011;47773;53.174;6.614;2023-10-31T06:14:21;2.90;;;0.40;;
61840;SDS011;47773;53.174;6.614;2023-10-31T06:16:46;1.73;;;0.50;;
61840;SDS011;47773;53.174;6.614;2023-10-31T06:19:12;1.50;;;0.43;;
61840;SDS011;47773;53.174;6.614;2023-10-31T06:21:38;2.65;;;0.85;;
61840;SDS011;47773;53.174;6.614;2023-10-31T06:24:03;3.30;;;0.80;;
61840;SDS011;47773;53.174;6.614;2023-10-31T06:26:29;4.13;;;1.00;;
61840;SDS011;47773;53.174;6.614;2023-10-31T06:28:55;3.08;;;1.10;;
61840;SDS011;47773;53.174;6.614;2023-10-31T06:31:21;3.50;;;1.00;;
61840;SDS011;47773;53.174;6.614;2023-10-31T06:33:47;4.55;;;1.13;;
61840;SDS011;47773;53.174;6.614;2023-10-31T06:36:12;3.75;;;1.00;;
61840;SDS011;47773;53.174;6.614;2023-10-31T06:38:38;3.45;;;1.20;;
61840;SDS011;47773;53.174;6.614;2023-10-31T06:41:04;4.10;;;1.35;;
61840;SDS011;47773;53.174;6.614;2023-10-31T06:43:29;3.10;;;1.30;;
61840;SDS011;47773;53.174;6.614;2023-10-31T06:45:55;8.05;;;1.35;;
61840;SDS011;47773;53.174;6.614;2023-10-31T06:48:22;5.80;;;1.50;;
61840;SDS011;47773;53.174;6.614;2023-10-31T06:50:48;6.80;;;1.85;;
61840;SDS011;47773;53.174;6.614;2023-10-31T06:53:14;5.00;;;2.08;;
61840;SDS011;47773;53.174;6.614;2023-10-31T06:55:40;4.78;;;1.77;;
61840;SDS011;47773;53.174;6.614;2023-10-31T06:58:05;3.90;;;1.50;;
61840;SDS011;47773;53.174;6.614;2023-10-31T07:00:31;4.95;;;1.50;;
61840;SDS011;47773;53.174;6.614;2023-10-31T07:02:56;4.88;;;1.50;;
61840;SDS011;47773;53.174;6.614;2023-10-31T07:05:24;6.47;;;1.70;;
61840;SDS011;47773;53.174;6.614;2023-10-31T07:07:50;7.97;;;2.00;;
61840;SDS011;47773;53.174;6.614;2023-10-31T07:10:15;6.25;;;1.95;;
61840;SDS011;47773;53.174;6.614;2023-10-31T07:12:41;6.63;;;1.98;;
61840;SDS011;47773;53.174;6.614;2023-10-31T07:15:07;5.10;;;2.10;;
61840;SDS011;47773;53.174;6.614;2023-10-31T07:17:32;6.22;;;1.83;;
61840;SDS011;47773;53.174;6.614;2023-10-31T07:19:58;5.13;;;1.98;;
61840;SDS011;47773;53.174;6.614;2023-10-31T07:22:24;4.13;;;2.10;;
61840;SDS011;47773;53.174;6.614;2023-10-31T07:24:53;5.95;;;2.22;;
61840;SDS011;47773;53.174;6.614;2023-10-31T07:27:18;4.45;;;1.73;;
61840;SDS011;47773;53.174;6.614;2023-10-31T07:29:44;7.90;;;1.90;;
61840;SDS011;47773;53.174;6.614;2023-10-31T07:32:11;7.25;;;2.28;;
61840;SDS011;47773;53.174;6.614;2023-10-31T07:34:39;6.57;;;2.22;;
61840;SDS011;47773;53.174;6.614;2023-10-31T07:37:07;6.95;;;2.40;;
61840;SDS011;47773;53.174;6.614;2023-10-31T07:39:32;4.60;;;1.88;;
61840;SDS011;47773;53.174;6.614;2023-10-31T07:41:58;6.97;;;2.10;;
61840;SDS011;47773;53.174;6.614;2023-10-31T07:44:24;4.70;;;1.90;;
61840;SDS011;47773;53.174;6.614;2023-10-31T07:46:49;3.08;;;1.40;;
61840;SDS011;47773;53.174;6.614;2023-10-31T07:49:15;4.40;;;1.80;;
61840;SDS011;47773;53.174;6.614;2023-10-31T07:51:41;4.97;;;1.45;;
61840;SDS011;47773;53.174;6.614;2023-10-31T07:54:07;6.68;;;1.60;;
61840;SDS011;47773;53.174;6.614;2023-10-31T07:56:34;9.40;;;1.48;;
61840;SDS011;47773;53.174;6.614;2023-10-31T07:59:01;4.22;;;1.40;;
61840;SDS011;47773;53.174;6.614;2023-10-31T08:01:27;6.10;;;1.30;;
61840;SDS011;47773;53.174;6.614;2023-10-31T08:03:53;3.78;;;1.08;;
61840;SDS011;47773;53.174;6.614;2023-10-31T08:06:19;4.20;;;1.00;;
61840;SDS011;47773;53.174;6.614;2023-10-31T08:08:45;6.82;;;1.42;;
61840;SDS011;47773;53.174;6.614;2023-10-31T08:11:11;9.73;;;1.77;;
61840;SDS011;47773;53.174;6.614;2023-10-31T08:13:39;9.52;;;1.23;;
61840;SDS011;47773;53.174;6.614;2023-10-31T08:16:05;5.75;;;1.25;;
61840;SDS011;47773;53.174;6.614;2023-10-31T08:18:32;4.32;;;1.20;;
61840;SDS011;47773;53.174;6.614;2023-10-31T08:20:58;3.78;;;0.80;;
61840;SDS011;47773;53.174;6.614;2023-10-31T08:23:24;7.13;;;0.80;;
61840;SDS011;47773;53.174;6.614;2023-10-31T08:25:50;3.50;;;0.80;;
61840;SDS011;47773;53.174;6.614;2023-10-31T08:28:16;2.55;;;0.65;;
61840;SDS011;47773;53.174;6.614;2023-10-31T08:30:42;6.07;;;0.77;;
61840;SDS011;47773;53.174;6.614;2023-10-31T08:33:08;5.00;;;0.60;;
61840;SDS011;47773;53.174;6.614;2023-10-31T08:35:33;3.45;;;0.60;;
61840;SDS011;47773;53.174;6.614;2023-10-31T08:37:59;5.68;;;0.77;;
61840;SDS011;47773;53.174;6.614;2023-10-31T08:40:25;4.72;;;0.70;;
61840;SDS011;47773;53.174;6.614;2023-10-31T08:42:50;2.72;;;0.60;;
61840;SDS011;47773;53.174;6.614;2023-10-31T08:45:16;4.13;;;0.65;;
61840;SDS011;47773;53.174;6.614;2023-10-31T08:47:42;5.10;;;0.65;;
61840;SDS011;47773;53.174;6.614;2023-10-31T08:50:07;4.65;;;0.52;;
61840;SDS011;47773;53.174;6.614;2023-10-31T08:52:34;7.20;;;0.68;;
61840;SDS011;47773;53.174;6.614;2023-10-31T08:55:00;11.10;;;0.70;;
61840;SDS011;47773;53.174;6.614;2023-10-31T08:57:25;3.25;;;0.55;;
61840;SDS011;47773;53.174;6.614;2023-10-31T08:59:51;3.75;;;0.82;;
61840;SDS011;47773;53.174;6.614;2023-10-31T09:02:17;7.47;;;0.60;;
61840;SDS011;47773;53.174;6.614;2023-10-31T09:04:42;7.63;;;0.77;;
61840;SDS011;47773;53.174;6.614;2023-10-31T09:07:08;5.35;;;0.75;;
61840;SDS011;47773;53.174;6.614;2023-10-31T09:09:34;13.88;;;1.00;;
61840;SDS011;47773;53.174;6.614;2023-10-31T09:11:59;8.15;;;0.90;;
61840;SDS011;47773;53.174;6.614;2023-10-31T09:14:25;14.57;;;0.95;;
61840;SDS011;47773;53.174;6.614;2023-10-31T09:16:50;12.50;;;1.05;;
61840;SDS011;47773;53.174;6.614;2023-10-31T09:19:16;13.55;;;0.88;;
61840;SDS011;47773;53.174;6.614;2023-10-31T09:21:42;11.52;;;0.80;;
61840;SDS011;47773;53.174;6.614;2023-10-31T09:24:08;7.22;;;0.60;;
61840;SDS011;47773;53.174;6.614;2023-10-31T09:26:34;8.07;;;0.70;;
61840;SDS011;47773;53.174;6.614;2023-10-31T09:29:00;11.13;;;0.77;;
61840;SDS011;47773;53.174;6.614;2023-10-31T09:31:26;7.57;;;0.80;;
61840;SDS011;47773;53.174;6.614;2023-10-31T09:33:51;4.60;;;0.60;;
61840;SDS011;47773;53.174;6.614;2023-10-31T09:36:19;5.85;;;0.88;;
61840;SDS011;47773;53.174;6.614;2023-10-31T09:38:45;5.97;;;1.25;;
61840;SDS011;47773;53.174;6.614;2023-10-31T09:41:12;3.20;;;0.40;;
61840;SDS011;47773;53.174;6.614;2023-10-31T09:43:38;4.80;;;0.77;;
61840;SDS011;47773;53.174;6.614;2023-10-31T09:46:04;6.10;;;0.70;;
61840;SDS011;47773;53.174;6.614;2023-10-31T09:48:31;4.78;;;0.45;;
61840;SDS011;47773;53.174;6.614;2023-10-31T09:50:57;4.05;;;0.60;;
61840;SDS011;47773;53.174;6.614;2023-10-31T09:53:23;6.45;;;0.60;;
61840;SDS011;47773;53.174;6.614;2023-10-31T09:55:49;6.95;;;0.40;;
61840;SDS011;47773;53.174;6.614;2023-10-31T09:58:16;6.90;;;0.82;;
61840;SDS011;47773;53.174;6.614;2023-10-31T10:00:42;5.28;;;0.60;;
61840;SDS011;47773;53.174;6.614;2023-10-31T10:03:08;7.78;;;1.05;;
61840;SDS011;47773;53.174;6.614;2023-10-31T10:05:37;3.65;;;0.40;;
61840;SDS011;47773;53.174;6.614;2023-10-31T10:08:06;4.90;;;0.60;;
61840;SDS011;47773;53.174;6.614;2023-10-31T10:10:33;6.18;;;1.33;;
61840;SDS011;47773;53.174;6.614;2023-10-31T10:12:59;5.30;;;0.75;;
61840;SDS011;47773;53.174;6.614;2023-10-31T10:15:27;6.57;;;0.60;;
61840;SDS011;47773;53.174;6.614;2023-10-31T10:17:53;5.93;;;0.45;;
61840;SDS011;47773;53.174;6.614;2023-10-31T10:20:19;4.45;;;0.70;;
61840;SDS011;47773;53.174;6.614;2023-10-31T10:22:45;9.15;;;0.60;;
61840;SDS011;47773;53.174;6.614;2023-10-31T10:25:15;5.78;;;0.63;;
61840;SDS011;47773;53.174;6.614;2023-10-31T10:27:43;4.47;;;0.57;;
61840;SDS011;47773;53.174;6.614;2023-10-31T10:30:10;7.68;;;0.82;;
61840;SDS011;47773;53.174;6.614;2023-10-31T10:32:37;7.90;;;0.77;;
61840;SDS011;47773;53.174;6.614;2023-10-31T10:35:03;5.43;;;0.40;;
61840;SDS011;47773;53.174;6.614;2023-10-31T10:37:29;10.52;;;0.47;;
61840;SDS011;47773;53.174;6.614;2023-10-31T10:39:55;3.97;;;0.50;;
61840;SDS011;47773;53.174;6.614;2023-10-31T10:42:40;8.77;;;0.55;;
61840;SDS011;47773;53.174;6.614;2023-10-31T10:45:13;4.63;;;0.52;;
61840;SDS011;47773;53.174;6.614;2023-10-31T10:47:45;4.85;;;0.40;;
61840;SDS011;47773;53.174;6.614;2023-10-31T10:50:13;3.97;;;0.80;;
61840;SDS011;47773;53.174;6.614;2023-10-31T10:52:41;6.80;;;0.68;;
61840;SDS011;47773;53.174;6.614;2023-10-31T10:55:12;7.25;;;0.70;;
61840;SDS011;47773;53.174;6.614;2023-10-31T11:00:15;2.92;;;0.47;;
61840;SDS011;47773;53.174;6.614;2023-10-31T11:02:41;11.48;;;0.75;;
61840;SDS011;47773;53.174;6.614;2023-10-31T11:05:08;6.05;;;0.55;;
61840;SDS011;47773;53.174;6.614;2023-10-31T11:07:35;5.50;;;0.38;;
61840;SDS011;47773;53.174;6.614;2023-10-31T11:10:02;4.85;;;0.35;;
61840;SDS011;47773;53.174;6.614;2023-10-31T11:12:30;5.30;;;0.45;;
61840;SDS011;47773;53.174;6.614;2023-10-31T11:14:59;7.20;;;0.52;;
61840;SDS011;47773;53.174;6.614;2023-10-31T11:17:28;6.70;;;0.55;;
61840;SDS011;47773;53.174;6.614;2023-10-31T11:19:54;7.35;;;0.73;;
61840;SDS011;47773;53.174;6.614;2023-10-31T11:22:21;8.45;;;0.90;;
61840;SDS011;47773;53.174;6.614;2023-10-31T11:24:48;5.35;;;0.98;;
61840;SDS011;47773;53.174;6.614;2023-10-31T11:27:14;6.53;;;0.80;;
61840;SDS011;47773;53.174;6.614;2023-10-31T11:29:42;3.92;;;0.40;;
61840;SDS011;47773;53.174;6.614;2023-10-31T11:32:11;5.70;;;0.50;;
61840;SDS011;47773;53.174;6.614;2023-10-31T11:34:37;8.82;;;0.80;;
61840;SDS011;47773;53.174;6.614;2023-10-31T11:42:49;5.13;;;0.68;;
61840;SDS011;47773;53.174;6.614;2023-10-31T11:45:26;6.15;;;1.00;;
61840;SDS011;47773;53.174;6.614;2023-10-31T11:48:15;5.10;;;0.60;;
61840;SDS011;47773;53.174;6.614;2023-10-31T11:50:41;18.15;;;2.45;;
61840;SDS011;47773;53.174;6.614;2023-10-31T11:53:11;28.38;;;2.03;;
61840;SDS011;47773;53.174;6.614;2023-10-31T11:55:42;9.13;;;0.73;;
61840;SDS011;47773;53.174;6.614;2023-10-31T11:58:15;8.77;;;1.65;;
61840;SDS011;47773;53.174;6.614;2023-10-31T12:00:41;10.35;;;0.88;;
61840;SDS011;47773;53.174;6.614;2023-10-31T12:03:07;6.75;;;0.68;;
61840;SDS011;47773;53.174;6.614;2023-10-31T12:05:33;6.97;;;0.82;;
61840;SDS011;47773;53.174;6.614;2023-10-31T12:07:59;7.40;;;0.80;;
61840;SDS011;47773;53.174;6.614;2023-10-31T12:10:25;6.70;;;0.80;;
61840;SDS011;47773;53.174;6.614;2023-10-31T12:12:55;9.30;;;0.82;;
61840;SDS011;47773;53.174;6.614;2023-10-31T12:15:21;6.38;;;0.63;;
61840;SDS011;47773;53.174;6.614;2023-10-31T12:17:47;7.22;;;0.85;;
61840;SDS011;47773;53.174;6.614;2023-10-31T12:20:13;11.25;;;1.05;;
61840;SDS011;47773;53.174;6.614;2023-10-31T12:22:40;10.80;;;1.08;;
61840;SDS011;47773;53.174;6.614;2023-10-31T12:25:07;12.30;;;1.27;;
61840;SDS011;47773;53.174;6.614;2023-10-31T12:30:16;9.80;;;0.95;;
61840;SDS011;47773;53.174;6.614;2023-10-31T12:32:43;7.80;;;0.68;;
61840;SDS011;47773;53.174;6.614;2023-10-31T12:35:10;8.50;;;0.73;;
61840;SDS011;47773;53.174;6.614;2023-10-31T12:37:45;10.27;;;1.00;;
61840;SDS011;47773;53.174;6.614;2023-10-31T12:40:16;7.25;;;1.25;;
61840;SDS011;47773;53.174;6.614;2023-10-31T12:42:44;10.73;;;0.95;;
61840;SDS011;47773;53.174;6.614;2023-10-31T12:45:11;9.98;;;1.00;;
61840;SDS011;47773;53.174;6.614;2023-10-31T12:47:37;10.68;;;1.05;;
61840;SDS011;47773;53.174;6.614;2023-10-31T12:52:49;6.88;;;1.10;;
61840;SDS011;47773;53.174;6.614;2023-10-31T12:55:22;6.40;;;0.93;;
61840;SDS011;47773;53.174;6.614;2023-10-31T12:57:49;13.52;;;1.00;;
61840;SDS011;47773;53.174;6.614;2023-10-31T13:00:17;15.07;;;1.40;;
61840;SDS011;47773;53.174;6.614;2023-10-31T13:02:49;11.93;;;1.10;;
61840;SDS011;47773;53.174;6.614;2023-10-31T13:05:16;8.15;;;0.90;;
61840;SDS011;47773;53.174;6.614;2023-10-31T13:07:49;11.55;;;0.98;;
61840;SDS011;47773;53.174;6.614;2023-10-31T13:10:24;12.93;;;1.55;;
61840;SDS011;47773;53.174;6.614;2023-10-31T13:12:51;12.30;;;1.15;;
61840;SDS011;47773;53.174;6.614;2023-10-31T13:15:17;5.07;;;0.80;;
61840;SDS011;47773;53.174;6.614;2023-10-31T13:17:45;9.98;;;1.10;;
61840;SDS011;47773;53.174;6.614;2023-10-31T13:20:12;8.48;;;0.93;;
61840;SDS011;47773;53.174;6.614;2023-10-31T13:22:39;12.63;;;1.55;;
61840;SDS011;47773;53.174;6.614;2023-10-31T13:25:07;13.80;;;1.33;;
61840;SDS011;47773;53.174;6.614;2023-10-31T13:27:35;12.25;;;1.20;;
61840;SDS011;47773;53.174;6.614;2023-10-31T13:30:02;10.40;;;1.38;;
61840;SDS011;47773;53.174;6.614;2023-10-31T13:32:29;6.75;;;0.68;;
61840;SDS011;47773;53.174;6.614;2023-10-31T13:34:54;11.38;;;0.95;;
61840;SDS011;47773;53.174;6.614;2023-10-31T13:37:20;18.58;;;2.28;;
61840;SDS011;47773;53.174;6.614;2023-10-31T13:39:46;7.20;;;0.70;;
61840;SDS011;47773;53.174;6.614;2023-10-31T13:42:12;18.30;;;7.63;;
61840;SDS011;47773;53.174;6.614;2023-10-31T13:44:39;8.05;;;0.90;;
61840;SDS011;47773;53.174;6.614;2023-10-31T13:47:05;12.10;;;1.10;;
61840;SDS011;47773;53.174;6.614;2023-10-31T13:49:31;9.57;;;1.00;;
61840;SDS011;47773;53.174;6.614;2023-10-31T13:51:57;7.05;;;1.60;;
61840;SDS011;47773;53.174;6.614;2023-10-31T13:54:22;8.23;;;0.77;;
61840;SDS011;47773;53.174;6.614;2023-10-31T13:56:48;7.28;;;1.20;;
61840;SDS011;47773;53.174;6.614;2023-10-31T13:59:14;10.32;;;1.20;;
61840;SDS011;47773;53.174;6.614;2023-10-31T14:01:40;12.80;;;1.13;;
61840;SDS011;47773;53.174;6.614;2023-10-31T14:04:06;8.00;;;1.38;;
61840;SDS011;47773;53.174;6.614;2023-10-31T14:06:32;6.40;;;1.30;;
61840;SDS011;47773;53.174;6.614;2023-10-31T14:08:59;7.43;;;0.95;;
61840;SDS011;47773;53.174;6.614;2023-10-31T14:11:27;10.10;;;1.55;;
61840;SDS011;47773;53.174;6.614;2023-10-31T14:13:53;9.57;;;1.30;;
61840;SDS011;47773;53.174;6.614;2023-10-31T14:16:18;6.65;;;1.40;;
61840;SDS011;47773;53.174;6.614;2023-10-31T14:18:44;9.27;;;1.65;;
61840;SDS011;47773;53.174;6.614;2023-10-31T14:21:11;7.93;;;1.85;;
61840;SDS011;47773;53.174;6.614;2023-10-31T14:23:37;10.93;;;1.02;;
61840;SDS011;47773;53.174;6.614;2023-10-31T14:26:03;15.80;;;1.48;;
61840;SDS011;47773;53.174;6.614;2023-10-31T14:28:29;7.70;;;0.90;;
61840;SDS011;47773;53.174;6.614;2023-10-31T14:30:54;7.68;;;1.05;;
61840;SDS011;47773;53.174;6.614;2023-10-31T14:33:20;5.60;;;1.75;;
61840;SDS011;47773;53.174;6.614;2023-10-31T14:35:46;9.48;;;1.17;;
61840;SDS011;47773;53.174;6.614;2023-10-31T14:38:11;9.57;;;1.83;;
61840;SDS011;47773;53.174;6.614;2023-10-31T14:40:37;5.85;;;0.90;;
61840;SDS011;47773;53.174;6.614;2023-10-31T14:43:03;5.60;;;1.15;;
61840;SDS011;47773;53.174;6.614;2023-10-31T14:45:28;7.80;;;0.70;;
61840;SDS011;47773;53.174;6.614;2023-10-31T14:47:54;7.97;;;0.80;;
61840;SDS011;47773;53.174;6.614;2023-10-31T14:50:20;6.32;;;0.73;;
61840;SDS011;47773;53.174;6.614;2023-10-31T14:52:46;5.00;;;0.80;;
61840;SDS011;47773;53.174;6.614;2023-10-31T14:55:12;6.07;;;1.30;;